Startpagina
METAR-TAF:

METAR-TAF

Vliegvelden :

Ghanzi, Botswana

breedte: 21-42S, lengte: 021-39E, hoogte: 1131 m

METAR: ontbreekt

Tijdstip: 12:33 (10:33 UTC)

Verwachting

Dit bericht is 7 uur en het 33 minuten geleden gemaakt, om 03:00 UTC
Verwachting geldig van 20 om 06 UTC tot 20 om 15 UTC
Wind 13 kt uit het oosten
Zicht 10 km of meer
geen wolken onder 1500 m en geen cumulonimbus

TAF: FBGZ 200300Z 2006/2015 08013KT CAVOK

Waarnemingen en weersverwachtingen van meer dan 4000 vliegvelden (METAR en TAF).

De beschikbare stations zijn de gele en rode punten op de kaart.

Ga met uw muis naar het station om de naam te zien.

Klik dan om waarnemingen en weersverwachtingen te zien.

kaart wijzigen: klik op de groene knoppen met een zwart kruis om in te zoomen, op de groene knop met een streepje om uit te zoomen of op de groene pijlen voor aangrenzende kaarten.


METAR-TAF: